Terminal Aerodrome Forecast
Issued by NWS

Home | Current Version | Previous Version | Text Only | Print | Product List | Glossary On
Versions: 1 2 3 4 5 6 7 8 9 10 11 12 13 14 15 16 17 18 19 20 21 22 23 24 25 26 27 28
000
FTUS41 KCAR 291307 AAA
TAFFVE
TAF AMD
KFVE 291307Z 2913/3012 14005KT P6SM -SHRA SCT009 OVC015
      TEMPO 2913/2915 6SM -SHRA BKN005
     FM291800 15007KT P6SM VCSH OVC020
     FM292300 14008KT P6SM VCSH OVC015
     FM300500 16009KT 2SM -SHRA BR OVC005=

USA.gov is the U.S. government's official web portal to all federal, state and local government web resources and services.